sensor_id;sensor_type;location;lat;lon;timestamp;P1;durP1;ratioP1;P2;durP2;ratioP2
33672;SDS011;20011;51.510;9.942;2023-05-07T00:02:17;34.75;;;18.23;;
33672;SDS011;20011;51.510;9.942;2023-05-07T00:04:44;28.33;;;18.25;;
33672;SDS011;20011;51.510;9.942;2023-05-07T00:07:11;32.90;;;19.25;;
33672;SDS011;20011;51.510;9.942;2023-05-07T00:09:38;32.05;;;19.77;;
33672;SDS011;20011;51.510;9.942;2023-05-07T00:12:06;30.40;;;19.02;;
33672;SDS011;20011;51.510;9.942;2023-05-07T00:14:33;28.80;;;18.98;;
33672;SDS011;20011;51.510;9.942;2023-05-07T00:17:00;32.00;;;20.33;;
33672;SDS011;20011;51.510;9.942;2023-05-07T00:19:27;32.80;;;19.08;;
33672;SDS011;20011;51.510;9.942;2023-05-07T00:21:54;32.47;;;19.98;;
33672;SDS011;20011;51.510;9.942;2023-05-07T00:24:22;39.13;;;21.05;;
33672;SDS011;20011;51.510;9.942;2023-05-07T00:26:48;35.05;;;21.00;;
33672;SDS011;20011;51.510;9.942;2023-05-07T00:29:16;33.28;;;21.10;;
33672;SDS011;20011;51.510;9.942;2023-05-07T00:31:43;32.35;;;21.15;;
33672;SDS011;20011;51.510;9.942;2023-05-07T00:34:10;38.30;;;22.08;;
33672;SDS011;20011;51.510;9.942;2023-05-07T00:36:37;37.58;;;20.70;;
33672;SDS011;20011;51.510;9.942;2023-05-07T00:39:04;37.67;;;22.27;;
33672;SDS011;20011;51.510;9.942;2023-05-07T00:41:30;33.00;;;21.20;;
33672;SDS011;20011;51.510;9.942;2023-05-07T00:43:58;34.38;;;21.75;;
33672;SDS011;20011;51.510;9.942;2023-05-07T00:46:25;32.05;;;19.40;;
33672;SDS011;20011;51.510;9.942;2023-05-07T00:48:52;32.17;;;19.20;;
33672;SDS011;20011;51.510;9.942;2023-05-07T00:51:20;37.35;;;21.23;;
33672;SDS011;20011;51.510;9.942;2023-05-07T00:53:47;31.98;;;19.63;;
33672;SDS011;20011;51.510;9.942;2023-05-07T00:56:14;34.53;;;19.25;;
33672;SDS011;20011;51.510;9.942;2023-05-07T00:58:41;35.67;;;19.63;;
33672;SDS011;20011;51.510;9.942;2023-05-07T01:01:09;37.90;;;21.17;;
33672;SDS011;20011;51.510;9.942;2023-05-07T01:03:36;29.02;;;19.17;;
33672;SDS011;20011;51.510;9.942;2023-05-07T01:06:03;34.33;;;20.42;;
33672;SDS011;20011;51.510;9.942;2023-05-07T01:08:33;33.83;;;20.30;;
33672;SDS011;20011;51.510;9.942;2023-05-07T01:11:01;30.30;;;18.70;;
33672;SDS011;20011;51.510;9.942;2023-05-07T01:13:29;28.38;;;18.63;;
33672;SDS011;20011;51.510;9.942;2023-05-07T01:15:57;32.33;;;19.67;;
33672;SDS011;20011;51.510;9.942;2023-05-07T01:18:24;34.35;;;19.17;;
33672;SDS011;20011;51.510;9.942;2023-05-07T01:20:52;37.75;;;21.02;;
33672;SDS011;20011;51.510;9.942;2023-05-07T01:23:20;33.08;;;19.40;;
33672;SDS011;20011;51.510;9.942;2023-05-07T01:25:51;33.22;;;19.95;;
33672;SDS011;20011;51.510;9.942;2023-05-07T01:28:21;33.25;;;19.80;;
33672;SDS011;20011;51.510;9.942;2023-05-07T01:30:53;31.75;;;18.65;;
33672;SDS011;20011;51.510;9.942;2023-05-07T01:33:22;34.25;;;19.90;;
33672;SDS011;20011;51.510;9.942;2023-05-07T01:35:51;30.92;;;20.08;;
33672;SDS011;20011;51.510;9.942;2023-05-07T01:38:20;33.00;;;19.92;;
33672;SDS011;20011;51.510;9.942;2023-05-07T01:40:48;26.98;;;18.23;;
33672;SDS011;20011;51.510;9.942;2023-05-07T01:43:16;35.60;;;20.58;;
33672;SDS011;20011;51.510;9.942;2023-05-07T01:45:44;31.20;;;18.65;;
33672;SDS011;20011;51.510;9.942;2023-05-07T01:48:12;32.28;;;19.70;;
33672;SDS011;20011;51.510;9.942;2023-05-07T01:50:41;33.05;;;19.42;;
33672;SDS011;20011;51.510;9.942;2023-05-07T01:53:09;31.10;;;18.98;;
33672;SDS011;20011;51.510;9.942;2023-05-07T01:55:36;25.92;;;18.08;;
33672;SDS011;20011;51.510;9.942;2023-05-07T01:58:03;30.92;;;19.13;;
33672;SDS011;20011;51.510;9.942;2023-05-07T02:00:31;29.65;;;18.55;;
33672;SDS011;20011;51.510;9.942;2023-05-07T02:02:58;30.25;;;18.08;;
33672;SDS011;20011;51.510;9.942;2023-05-07T02:05:34;33.10;;;18.30;;
33672;SDS011;20011;51.510;9.942;2023-05-07T02:08:11;24.08;;;16.65;;
33672;SDS011;20011;51.510;9.942;2023-05-07T02:10:37;29.80;;;18.55;;
33672;SDS011;20011;51.510;9.942;2023-05-07T02:13:05;27.10;;;18.90;;
33672;SDS011;20011;51.510;9.942;2023-05-07T02:15:33;30.60;;;18.85;;
33672;SDS011;20011;51.510;9.942;2023-05-07T02:18:02;29.15;;;18.05;;
33672;SDS011;20011;51.510;9.942;2023-05-07T02:20:31;29.30;;;18.58;;
33672;SDS011;20011;51.510;9.942;2023-05-07T02:22:58;30.90;;;18.80;;
33672;SDS011;20011;51.510;9.942;2023-05-07T02:25:28;28.50;;;18.27;;
33672;SDS011;20011;51.510;9.942;2023-05-07T02:27:57;26.77;;;16.60;;
33672;SDS011;20011;51.510;9.942;2023-05-07T02:30:37;25.60;;;16.88;;
33672;SDS011;20011;51.510;9.942;2023-05-07T02:33:04;25.95;;;16.80;;
33672;SDS011;20011;51.510;9.942;2023-05-07T02:35:32;27.30;;;16.48;;
33672;SDS011;20011;51.510;9.942;2023-05-07T02:37:59;25.75;;;16.40;;
33672;SDS011;20011;51.510;9.942;2023-05-07T02:40:26;24.60;;;15.68;;
33672;SDS011;20011;51.510;9.942;2023-05-07T02:42:53;31.55;;;15.13;;
33672;SDS011;20011;51.510;9.942;2023-05-07T02:45:21;29.85;;;16.40;;
33672;SDS011;20011;51.510;9.942;2023-05-07T02:47:51;24.42;;;16.30;;
33672;SDS011;20011;51.510;9.942;2023-05-07T02:50:18;24.13;;;16.15;;
33672;SDS011;20011;51.510;9.942;2023-05-07T02:52:45;24.85;;;16.13;;
33672;SDS011;20011;51.510;9.942;2023-05-07T02:55:13;24.20;;;15.98;;
33672;SDS011;20011;51.510;9.942;2023-05-07T02:57:40;23.40;;;16.13;;
33672;SDS011;20011;51.510;9.942;2023-05-07T03:00:11;28.33;;;16.77;;
33672;SDS011;20011;51.510;9.942;2023-05-07T03:02:50;27.23;;;15.55;;
33672;SDS011;20011;51.510;9.942;2023-05-07T03:05:17;27.25;;;16.90;;
33672;SDS011;20011;51.510;9.942;2023-05-07T03:07:44;25.38;;;17.15;;
33672;SDS011;20011;51.510;9.942;2023-05-07T03:10:13;25.65;;;16.60;;
33672;SDS011;20011;51.510;9.942;2023-05-07T03:12:41;23.42;;;15.75;;
33672;SDS011;20011;51.510;9.942;2023-05-07T03:15:10;26.75;;;16.63;;
33672;SDS011;20011;51.510;9.942;2023-05-07T03:17:39;28.05;;;15.98;;
33672;SDS011;20011;51.510;9.942;2023-05-07T03:20:06;23.98;;;16.08;;
33672;SDS011;20011;51.510;9.942;2023-05-07T03:22:34;30.45;;;16.25;;
33672;SDS011;20011;51.510;9.942;2023-05-07T03:25:01;23.45;;;15.45;;
33672;SDS011;20011;51.510;9.942;2023-05-07T03:27:28;27.20;;;15.63;;
33672;SDS011;20011;51.510;9.942;2023-05-07T03:29:55;27.13;;;17.08;;
33672;SDS011;20011;51.510;9.942;2023-05-07T03:32:22;24.05;;;16.15;;
33672;SDS011;20011;51.510;9.942;2023-05-07T03:34:49;28.60;;;15.55;;
33672;SDS011;20011;51.510;9.942;2023-05-07T03:37:16;24.38;;;16.13;;
33672;SDS011;20011;51.510;9.942;2023-05-07T03:39:43;26.60;;;16.95;;
33672;SDS011;20011;51.510;9.942;2023-05-07T03:42:11;24.77;;;16.02;;
33672;SDS011;20011;51.510;9.942;2023-05-07T03:44:38;24.13;;;15.45;;
33672;SDS011;20011;51.510;9.942;2023-05-07T03:47:05;24.33;;;15.73;;
33672;SDS011;20011;51.510;9.942;2023-05-07T03:49:32;23.50;;;15.98;;
33672;SDS011;20011;51.510;9.942;2023-05-07T03:51:59;23.42;;;14.73;;
33672;SDS011;20011;51.510;9.942;2023-05-07T03:54:27;26.00;;;16.50;;
33672;SDS011;20011;51.510;9.942;2023-05-07T03:56:54;21.65;;;14.70;;
33672;SDS011;20011;51.510;9.942;2023-05-07T03:59:21;21.67;;;14.57;;
33672;SDS011;20011;51.510;9.942;2023-05-07T04:01:49;24.67;;;16.15;;
33672;SDS011;20011;51.510;9.942;2023-05-07T04:04:20;21.52;;;14.57;;
33672;SDS011;20011;51.510;9.942;2023-05-07T04:06:47;23.55;;;15.30;;
33672;SDS011;20011;51.510;9.942;2023-05-07T04:09:14;21.33;;;14.70;;
33672;SDS011;20011;51.510;9.942;2023-05-07T04:11:41;24.70;;;15.40;;
33672;SDS011;20011;51.510;9.942;2023-05-07T04:14:10;20.88;;;14.57;;
33672;SDS011;20011;51.510;9.942;2023-05-07T04:16:36;22.17;;;15.18;;
33672;SDS011;20011;51.510;9.942;2023-05-07T04:19:05;21.40;;;14.63;;
33672;SDS011;20011;51.510;9.942;2023-05-07T04:21:33;23.95;;;14.80;;
33672;SDS011;20011;51.510;9.942;2023-05-07T04:23:59;22.90;;;15.30;;
33672;SDS011;20011;51.510;9.942;2023-05-07T04:26:29;29.63;;;15.55;;
33672;SDS011;20011;51.510;9.942;2023-05-07T04:28:56;25.08;;;15.10;;
33672;SDS011;20011;51.510;9.942;2023-05-07T04:31:30;25.15;;;15.48;;
33672;SDS011;20011;51.510;9.942;2023-05-07T04:33:58;22.55;;;14.40;;
33672;SDS011;20011;51.510;9.942;2023-05-07T04:36:26;22.10;;;14.40;;
33672;SDS011;20011;51.510;9.942;2023-05-07T04:38:59;21.33;;;14.73;;
33672;SDS011;20011;51.510;9.942;2023-05-07T04:41:26;23.63;;;14.40;;
33672;SDS011;20011;51.510;9.942;2023-05-07T04:43:54;21.73;;;14.32;;
33672;SDS011;20011;51.510;9.942;2023-05-07T04:46:23;21.45;;;14.13;;
33672;SDS011;20011;51.510;9.942;2023-05-07T04:48:52;24.98;;;13.68;;
33672;SDS011;20011;51.510;9.942;2023-05-07T04:51:19;20.13;;;13.38;;
33672;SDS011;20011;51.510;9.942;2023-05-07T04:53:46;20.38;;;13.18;;
33672;SDS011;20011;51.510;9.942;2023-05-07T04:56:14;19.42;;;12.43;;
33672;SDS011;20011;51.510;9.942;2023-05-07T04:58:43;20.95;;;13.73;;
33672;SDS011;20011;51.510;9.942;2023-05-07T05:01:10;21.20;;;14.05;;
33672;SDS011;20011;51.510;9.942;2023-05-07T05:03:38;20.95;;;13.77;;
33672;SDS011;20011;51.510;9.942;2023-05-07T05:06:06;21.23;;;14.02;;
33672;SDS011;20011;51.510;9.942;2023-05-07T05:08:33;22.63;;;13.20;;
33672;SDS011;20011;51.510;9.942;2023-05-07T05:11:02;22.27;;;13.35;;
33672;SDS011;20011;51.510;9.942;2023-05-07T05:13:33;25.95;;;13.68;;
33672;SDS011;20011;51.510;9.942;2023-05-07T05:16:06;22.88;;;14.40;;
33672;SDS011;20011;51.510;9.942;2023-05-07T05:18:34;22.70;;;14.48;;
33672;SDS011;20011;51.510;9.942;2023-05-07T05:21:01;24.98;;;14.25;;
33672;SDS011;20011;51.510;9.942;2023-05-07T05:23:29;24.23;;;13.95;;
33672;SDS011;20011;51.510;9.942;2023-05-07T05:25:56;23.48;;;14.05;;
33672;SDS011;20011;51.510;9.942;2023-05-07T05:28:26;27.55;;;15.13;;
33672;SDS011;20011;51.510;9.942;2023-05-07T05:30:54;25.17;;;14.27;;
33672;SDS011;20011;51.510;9.942;2023-05-07T05:33:22;27.52;;;14.60;;
33672;SDS011;20011;51.510;9.942;2023-05-07T05:35:49;28.27;;;14.30;;
33672;SDS011;20011;51.510;9.942;2023-05-07T05:38:17;25.90;;;14.75;;
33672;SDS011;20011;51.510;9.942;2023-05-07T05:40:44;29.73;;;16.42;;
33672;SDS011;20011;51.510;9.942;2023-05-07T05:43:11;30.35;;;15.95;;
33672;SDS011;20011;51.510;9.942;2023-05-07T05:45:38;25.60;;;16.35;;
33672;SDS011;20011;51.510;9.942;2023-05-07T05:48:05;25.17;;;16.23;;
33672;SDS011;20011;51.510;9.942;2023-05-07T05:50:33;26.58;;;15.70;;
33672;SDS011;20011;51.510;9.942;2023-05-07T05:53:03;29.27;;;16.75;;
33672;SDS011;20011;51.510;9.942;2023-05-07T05:55:30;31.02;;;16.33;;
33672;SDS011;20011;51.510;9.942;2023-05-07T05:58:01;25.42;;;15.63;;
33672;SDS011;20011;51.510;9.942;2023-05-07T06:00:32;25.85;;;14.60;;
33672;SDS011;20011;51.510;9.942;2023-05-07T06:03:02;28.58;;;15.35;;
33672;SDS011;20011;51.510;9.942;2023-05-07T06:05:30;24.33;;;13.88;;
33672;SDS011;20011;51.510;9.942;2023-05-07T06:07:57;23.33;;;14.32;;
33672;SDS011;20011;51.510;9.942;2023-05-07T06:10:28;23.40;;;13.75;;
33672;SDS011;20011;51.510;9.942;2023-05-07T06:12:56;21.80;;;13.30;;
33672;SDS011;20011;51.510;9.942;2023-05-07T06:15:23;21.27;;;13.50;;
33672;SDS011;20011;51.510;9.942;2023-05-07T06:17:51;21.10;;;13.02;;
33672;SDS011;20011;51.510;9.942;2023-05-07T06:20:19;21.98;;;14.55;;
33672;SDS011;20011;51.510;9.942;2023-05-07T06:22:46;21.20;;;13.23;;
33672;SDS011;20011;51.510;9.942;2023-05-07T06:25:14;20.35;;;13.73;;
33672;SDS011;20011;51.510;9.942;2023-05-07T06:27:42;21.67;;;14.10;;
33672;SDS011;20011;51.510;9.942;2023-05-07T06:30:10;22.15;;;13.65;;
33672;SDS011;20011;51.510;9.942;2023-05-07T06:32:37;20.15;;;12.85;;
33672;SDS011;20011;51.510;9.942;2023-05-07T06:35:04;22.75;;;13.40;;
33672;SDS011;20011;51.510;9.942;2023-05-07T06:37:34;17.88;;;13.25;;
33672;SDS011;20011;51.510;9.942;2023-05-07T06:40:04;21.60;;;13.57;;
33672;SDS011;20011;51.510;9.942;2023-05-07T06:42:35;21.15;;;12.35;;
33672;SDS011;20011;51.510;9.942;2023-05-07T06:45:23;21.65;;;13.50;;
33672;SDS011;20011;51.510;9.942;2023-05-07T06:47:53;16.05;;;11.05;;
33672;SDS011;20011;51.510;9.942;2023-05-07T06:50:21;18.20;;;11.68;;
33672;SDS011;20011;51.510;9.942;2023-05-07T06:52:50;17.20;;;10.80;;
33672;SDS011;20011;51.510;9.942;2023-05-07T06:55:17;17.85;;;10.98;;
33672;SDS011;20011;51.510;9.942;2023-05-07T06:57:45;15.52;;;9.70;;
33672;SDS011;20011;51.510;9.942;2023-05-07T07:00:14;13.85;;;9.65;;
33672;SDS011;20011;51.510;9.942;2023-05-07T07:02:47;14.00;;;10.10;;
33672;SDS011;20011;51.510;9.942;2023-05-07T07:05:17;14.23;;;10.32;;
33672;SDS011;20011;51.510;9.942;2023-05-07T07:07:44;15.00;;;9.98;;
33672;SDS011;20011;51.510;9.942;2023-05-07T07:10:11;17.75;;;10.02;;
33672;SDS011;20011;51.510;9.942;2023-05-07T07:12:38;16.35;;;9.70;;
33672;SDS011;20011;51.510;9.942;2023-05-07T07:15:05;15.85;;;9.35;;
33672;SDS011;20011;51.510;9.942;2023-05-07T07:17:33;15.50;;;9.30;;
33672;SDS011;20011;51.510;9.942;2023-05-07T07:20:00;16.38;;;9.25;;
33672;SDS011;20011;51.510;9.942;2023-05-07T07:22:28;12.57;;;8.80;;
33672;SDS011;20011;51.510;9.942;2023-05-07T07:24:55;14.75;;;8.82;;
33672;SDS011;20011;51.510;9.942;2023-05-07T07:27:22;14.55;;;8.75;;
33672;SDS011;20011;51.510;9.942;2023-05-07T07:29:49;11.55;;;7.93;;
33672;SDS011;20011;51.510;9.942;2023-05-07T07:32:17;14.98;;;8.32;;
33672;SDS011;20011;51.510;9.942;2023-05-07T07:34:45;12.73;;;8.15;;
33672;SDS011;20011;51.510;9.942;2023-05-07T07:37:12;11.52;;;7.43;;
33672;SDS011;20011;51.510;9.942;2023-05-07T07:39:40;10.27;;;7.30;;
33672;SDS011;20011;51.510;9.942;2023-05-07T07:42:08;14.18;;;8.05;;
33672;SDS011;20011;51.510;9.942;2023-05-07T07:44:35;11.38;;;7.50;;
33672;SDS011;20011;51.510;9.942;2023-05-07T07:47:06;13.35;;;7.68;;
33672;SDS011;20011;51.510;9.942;2023-05-07T07:49:33;12.75;;;6.95;;
33672;SDS011;20011;51.510;9.942;2023-05-07T07:52:04;9.55;;;6.35;;
33672;SDS011;20011;51.510;9.942;2023-05-07T07:54:34;9.65;;;6.32;;
33672;SDS011;20011;51.510;9.942;2023-05-07T07:57:02;12.45;;;7.32;;
33672;SDS011;20011;51.510;9.942;2023-05-07T07:59:31;10.88;;;6.63;;
33672;SDS011;20011;51.510;9.942;2023-05-07T08:01:58;10.50;;;6.43;;
33672;SDS011;20011;51.510;9.942;2023-05-07T08:04:28;10.05;;;6.38;;
33672;SDS011;20011;51.510;9.942;2023-05-07T08:06:57;12.90;;;6.75;;
33672;SDS011;20011;51.510;9.942;2023-05-07T08:09:24;10.23;;;6.78;;
33672;SDS011;20011;51.510;9.942;2023-05-07T08:11:53;10.13;;;6.20;;
33672;SDS011;20011;51.510;9.942;2023-05-07T08:14:21;11.60;;;6.43;;
33672;SDS011;20011;51.510;9.942;2023-05-07T08:16:48;9.55;;;6.53;;
33672;SDS011;20011;51.510;9.942;2023-05-07T08:19:15;11.43;;;7.40;;
33672;SDS011;20011;51.510;9.942;2023-05-07T08:21:43;10.70;;;7.32;;
33672;SDS011;20011;51.510;9.942;2023-05-07T08:24:11;14.32;;;7.43;;
33672;SDS011;20011;51.510;9.942;2023-05-07T08:26:39;11.15;;;7.15;;
33672;SDS011;20011;51.510;9.942;2023-05-07T08:29:07;12.27;;;7.80;;
33672;SDS011;20011;51.510;9.942;2023-05-07T08:31:34;10.77;;;6.80;;
33672;SDS011;20011;51.510;9.942;2023-05-07T08:34:03;11.60;;;7.18;;
33672;SDS011;20011;51.510;9.942;2023-05-07T08:36:36;10.50;;;6.78;;
33672;SDS011;20011;51.510;9.942;2023-05-07T08:39:03;10.30;;;6.57;;
33672;SDS011;20011;51.510;9.942;2023-05-07T08:41:30;11.23;;;6.55;;
33672;SDS011;20011;51.510;9.942;2023-05-07T08:43:57;9.52;;;6.28;;
33672;SDS011;20011;51.510;9.942;2023-05-07T08:46:30;11.55;;;6.68;;
33672;SDS011;20011;51.510;9.942;2023-05-07T08:48:58;11.13;;;6.85;;
33672;SDS011;20011;51.510;9.942;2023-05-07T08:51:26;11.68;;;7.30;;
33672;SDS011;20011;51.510;9.942;2023-05-07T08:53:54;12.32;;;7.22;;
33672;SDS011;20011;51.510;9.942;2023-05-07T08:56:25;10.70;;;7.55;;
33672;SDS011;20011;51.510;9.942;2023-05-07T08:58:53;11.52;;;7.47;;
33672;SDS011;20011;51.510;9.942;2023-05-07T09:01:26;11.25;;;7.47;;
33672;SDS011;20011;51.510;9.942;2023-05-07T09:03:54;9.02;;;6.70;;
33672;SDS011;20011;51.510;9.942;2023-05-07T09:06:22;11.40;;;7.20;;
33672;SDS011;20011;51.510;9.942;2023-05-07T09:08:53;10.55;;;7.32;;
33672;SDS011;20011;51.510;9.942;2023-05-07T09:11:24;10.63;;;6.80;;
33672;SDS011;20011;51.510;9.942;2023-05-07T09:13:54;11.18;;;7.55;;
33672;SDS011;20011;51.510;9.942;2023-05-07T09:16:24;11.25;;;7.43;;
33672;SDS011;20011;51.510;9.942;2023-05-07T09:18:53;13.10;;;7.90;;
33672;SDS011;20011;51.510;9.942;2023-05-07T09:21:21;12.73;;;8.35;;
33672;SDS011;20011;51.510;9.942;2023-05-07T09:23:52;13.77;;;7.47;;
33672;SDS011;20011;51.510;9.942;2023-05-07T09:26:25;12.10;;;8.02;;
33672;SDS011;20011;51.510;9.942;2023-05-07T09:28:52;12.63;;;8.70;;
33672;SDS011;20011;51.510;9.942;2023-05-07T09:31:19;12.13;;;8.32;;
33672;SDS011;20011;51.510;9.942;2023-05-07T09:33:48;12.60;;;8.60;;
33672;SDS011;20011;51.510;9.942;2023-05-07T09:36:16;14.38;;;9.20;;
33672;SDS011;20011;51.510;9.942;2023-05-07T09:38:44;12.32;;;8.82;;
33672;SDS011;20011;51.510;9.942;2023-05-07T09:41:12;14.05;;;9.60;;
33672;SDS011;20011;51.510;9.942;2023-05-07T09:43:54;18.95;;;10.98;;
33672;SDS011;20011;51.510;9.942;2023-05-07T09:46:27;15.02;;;10.05;;
33672;SDS011;20011;51.510;9.942;2023-05-07T09:48:58;15.27;;;10.48;;
33672;SDS011;20011;51.510;9.942;2023-05-07T09:51:33;15.70;;;11.35;;
33672;SDS011;20011;51.510;9.942;2023-05-07T09:54:06;15.70;;;10.57;;
33672;SDS011;20011;51.510;9.942;2023-05-07T09:56:37;16.80;;;11.57;;
33672;SDS011;20011;51.510;9.942;2023-05-07T09:59:05;16.50;;;11.30;;
33672;SDS011;20011;51.510;9.942;2023-05-07T10:01:35;18.80;;;12.25;;
33672;SDS011;20011;51.510;9.942;2023-05-07T10:04:03;18.02;;;12.35;;
33672;SDS011;20011;51.510;9.942;2023-05-07T10:06:32;23.83;;;13.70;;
33672;SDS011;20011;51.510;9.942;2023-05-07T10:08:59;19.70;;;13.15;;
33672;SDS011;20011;51.510;9.942;2023-05-07T10:11:26;19.17;;;12.07;;
33672;SDS011;20011;51.510;9.942;2023-05-07T10:13:54;19.50;;;14.15;;
33672;SDS011;20011;51.510;9.942;2023-05-07T10:16:22;21.15;;;14.10;;
33672;SDS011;20011;51.510;9.942;2023-05-07T10:18:49;21.67;;;14.32;;
33672;SDS011;20011;51.510;9.942;2023-05-07T10:21:21;20.65;;;13.48;;
33672;SDS011;20011;51.510;9.942;2023-05-07T10:23:59;26.45;;;15.15;;
33672;SDS011;20011;51.510;9.942;2023-05-07T10:26:45;24.58;;;15.23;;
33672;SDS011;20011;51.510;9.942;2023-05-07T10:29:33;21.15;;;13.90;;
33672;SDS011;20011;51.510;9.942;2023-05-07T10:35:15;19.95;;;13.75;;
33672;SDS011;20011;51.510;9.942;2023-05-07T10:37:49;21.27;;;14.85;;
33672;SDS011;20011;51.510;9.942;2023-05-07T10:40:19;23.52;;;14.73;;
33672;SDS011;20011;51.510;9.942;2023-05-07T10:42:55;21.60;;;14.77;;
33672;SDS011;20011;51.510;9.942;2023-05-07T10:45:28;23.38;;;15.13;;
33672;SDS011;20011;51.510;9.942;2023-05-07T10:51:19;24.02;;;15.65;;
33672;SDS011;20011;51.510;9.942;2023-05-07T10:56:41;32.00;;;15.73;;
33672;SDS011;20011;51.510;9.942;2023-05-07T11:01:57;20.25;;;15.10;;
33672;SDS011;20011;51.510;9.942;2023-05-07T11:07:55;24.63;;;15.60;;
33672;SDS011;20011;51.510;9.942;2023-05-07T11:13:41;23.70;;;15.98;;
33672;SDS011;20011;51.510;9.942;2023-05-07T11:16:23;20.83;;;15.45;;
33672;SDS011;20011;51.510;9.942;2023-05-07T11:19:00;21.48;;;15.90;;
33672;SDS011;20011;51.510;9.942;2023-05-07T11:21:37;24.33;;;15.30;;
33672;SDS011;20011;51.510;9.942;2023-05-07T11:24:25;22.67;;;16.70;;
33672;SDS011;20011;51.510;9.942;2023-05-07T11:26:56;23.15;;;16.35;;
33672;SDS011;20011;51.510;9.942;2023-05-07T11:29:26;22.08;;;16.50;;
33672;SDS011;20011;51.510;9.942;2023-05-07T11:32:01;22.88;;;16.17;;
33672;SDS011;20011;51.510;9.942;2023-05-07T11:34:34;24.65;;;16.23;;
33672;SDS011;20011;51.510;9.942;2023-05-07T11:37:02;23.67;;;16.52;;
33672;SDS011;20011;51.510;9.942;2023-05-07T11:42:38;23.75;;;16.10;;
33672;SDS011;20011;51.510;9.942;2023-05-07T11:45:07;22.05;;;15.10;;
33672;SDS011;20011;51.510;9.942;2023-05-07T11:47:35;21.25;;;15.10;;
33672;SDS011;20011;51.510;9.942;2023-05-07T11:50:05;22.58;;;16.08;;
33672;SDS011;20011;51.510;9.942;2023-05-07T11:52:34;23.33;;;17.10;;
33672;SDS011;20011;51.510;9.942;2023-05-07T11:55:02;27.40;;;15.77;;
33672;SDS011;20011;51.510;9.942;2023-05-07T11:57:32;24.67;;;15.75;;
33672;SDS011;20011;51.510;9.942;2023-05-07T12:00:00;23.30;;;15.37;;
33672;SDS011;20011;51.510;9.942;2023-05-07T12:02:40;23.60;;;16.55;;
33672;SDS011;20011;51.510;9.942;2023-05-07T12:05:08;24.13;;;15.88;;
33672;SDS011;20011;51.510;9.942;2023-05-07T12:07:36;23.13;;;16.33;;
33672;SDS011;20011;51.510;9.942;2023-05-07T12:10:06;25.48;;;15.13;;
33672;SDS011;20011;51.510;9.942;2023-05-07T12:15:08;19.67;;;14.70;;
33672;SDS011;20011;51.510;9.942;2023-05-07T12:17:36;24.20;;;15.35;;
33672;SDS011;20011;51.510;9.942;2023-05-07T12:20:04;22.92;;;15.05;;
33672;SDS011;20011;51.510;9.942;2023-05-07T12:22:32;20.85;;;14.55;;
33672;SDS011;20011;51.510;9.942;2023-05-07T12:24:59;21.50;;;14.10;;
33672;SDS011;20011;51.510;9.942;2023-05-07T12:27:26;19.50;;;13.73;;
33672;SDS011;20011;51.510;9.942;2023-05-07T12:29:53;17.30;;;12.95;;
33672;SDS011;20011;51.510;9.942;2023-05-07T12:32:21;23.17;;;13.68;;
33672;SDS011;20011;51.510;9.942;2023-05-07T12:38:09;24.33;;;14.93;;
33672;SDS011;20011;51.510;9.942;2023-05-07T12:40:41;22.40;;;13.45;;
33672;SDS011;20011;51.510;9.942;2023-05-07T12:45:48;19.35;;;13.40;;
33672;SDS011;20011;51.510;9.942;2023-05-07T12:48:17;22.40;;;14.57;;
33672;SDS011;20011;51.510;9.942;2023-05-07T12:50:49;20.98;;;15.18;;
33672;SDS011;20011;51.510;9.942;2023-05-07T12:53:16;19.77;;;13.77;;
33672;SDS011;20011;51.510;9.942;2023-05-07T12:55:47;21.30;;;15.15;;
33672;SDS011;20011;51.510;9.942;2023-05-07T12:58:24;21.58;;;14.77;;
33672;SDS011;20011;51.510;9.942;2023-05-07T13:00:52;19.42;;;13.95;;
33672;SDS011;20011;51.510;9.942;2023-05-07T13:05:51;19.23;;;13.57;;
33672;SDS011;20011;51.510;9.942;2023-05-07T13:08:31;21.33;;;14.13;;
33672;SDS011;20011;51.510;9.942;2023-05-07T13:11:11;20.00;;;13.05;;
33672;SDS011;20011;51.510;9.942;2023-05-07T13:13:39;19.58;;;12.45;;
33672;SDS011;20011;51.510;9.942;2023-05-07T13:16:08;17.25;;;12.60;;
33672;SDS011;20011;51.510;9.942;2023-05-07T13:21:05;17.38;;;11.65;;
33672;SDS011;20011;51.510;9.942;2023-05-07T13:23:33;17.23;;;11.68;;
33672;SDS011;20011;51.510;9.942;2023-05-07T13:26:00;16.50;;;12.88;;
33672;SDS011;20011;51.510;9.942;2023-05-07T13:28:36;16.17;;;12.10;;
33672;SDS011;20011;51.510;9.942;2023-05-07T13:31:03;16.63;;;12.52;;
33672;SDS011;20011;51.510;9.942;2023-05-07T13:33:30;18.30;;;12.57;;
33672;SDS011;20011;51.510;9.942;2023-05-07T13:35:58;18.90;;;13.00;;
33672;SDS011;20011;51.510;9.942;2023-05-07T13:38:26;15.75;;;12.18;;
33672;SDS011;20011;51.510;9.942;2023-05-07T13:40:53;17.38;;;13.23;;
33672;SDS011;20011;51.510;9.942;2023-05-07T13:43:20;15.90;;;12.25;;
33672;SDS011;20011;51.510;9.942;2023-05-07T13:45:47;16.42;;;11.50;;
33672;SDS011;20011;51.510;9.942;2023-05-07T13:48:24;18.23;;;12.75;;
33672;SDS011;20011;51.510;9.942;2023-05-07T13:50:51;16.27;;;11.13;;
33672;SDS011;20011;51.510;9.942;2023-05-07T13:53:18;18.65;;;12.00;;
33672;SDS011;20011;51.510;9.942;2023-05-07T13:55:46;16.05;;;12.10;;
33672;SDS011;20011;51.510;9.942;2023-05-07T13:58:13;15.95;;;11.82;;
33672;SDS011;20011;51.510;9.942;2023-05-07T14:00:40;16.73;;;10.13;;
33672;SDS011;20011;51.510;9.942;2023-05-07T14:03:07;16.40;;;12.30;;
33672;SDS011;20011;51.510;9.942;2023-05-07T14:05:34;17.70;;;12.88;;
33672;SDS011;20011;51.510;9.942;2023-05-07T14:08:02;17.88;;;12.23;;
33672;SDS011;20011;51.510;9.942;2023-05-07T14:10:30;15.38;;;11.30;;
33672;SDS011;20011;51.510;9.942;2023-05-07T14:12:58;16.20;;;11.88;;
33672;SDS011;20011;51.510;9.942;2023-05-07T14:15:25;15.55;;;11.60;;
33672;SDS011;20011;51.510;9.942;2023-05-07T14:17:52;15.55;;;10.90;;
33672;SDS011;20011;51.510;9.942;2023-05-07T14:20:19;15.80;;;10.60;;
33672;SDS011;20011;51.510;9.942;2023-05-07T14:22:46;16.30;;;11.50;;
33672;SDS011;20011;51.510;9.942;2023-05-07T14:25:14;14.30;;;10.20;;
33672;SDS011;20011;51.510;9.942;2023-05-07T14:27:47;15.10;;;10.95;;
33672;SDS011;20011;51.510;9.942;2023-05-07T14:30:14;19.45;;;10.55;;
33672;SDS011;20011;51.510;9.942;2023-05-07T14:32:43;17.25;;;11.73;;
33672;SDS011;20011;51.510;9.942;2023-05-07T14:35:10;14.20;;;10.63;;
33672;SDS011;20011;51.510;9.942;2023-05-07T14:37:37;15.02;;;10.63;;
33672;SDS011;20011;51.510;9.942;2023-05-07T14:40:04;14.02;;;10.27;;
33672;SDS011;20011;51.510;9.942;2023-05-07T14:42:32;14.68;;;11.25;;
33672;SDS011;20011;51.510;9.942;2023-05-07T14:44:59;16.15;;;10.57;;
33672;SDS011;20011;51.510;9.942;2023-05-07T14:51:01;13.27;;;10.23;;
33672;SDS011;20011;51.510;9.942;2023-05-07T14:53:28;12.13;;;10.15;;
33672;SDS011;20011;51.510;9.942;2023-05-07T14:55:54;14.70;;;9.50;;
33672;SDS011;20011;51.510;9.942;2023-05-07T14:58:21;11.27;;;9.00;;
33672;SDS011;20011;51.510;9.942;2023-05-07T15:00:49;14.00;;;9.88;;
33672;SDS011;20011;51.510;9.942;2023-05-07T15:03:16;14.25;;;8.55;;
33672;SDS011;20011;51.510;9.942;2023-05-07T15:05:44;12.32;;;8.80;;
33672;SDS011;20011;51.510;9.942;2023-05-07T15:08:11;12.20;;;9.07;;
33672;SDS011;20011;51.510;9.942;2023-05-07T15:10:38;13.05;;;9.52;;
33672;SDS011;20011;51.510;9.942;2023-05-07T15:13:08;10.65;;;9.30;;